Time;durP1;ratioP1;P1;durP2;ratioP2;P2;SDS_P1;SDS_P2;PMS_P1;PMS_P2;Temp;Humidity;BMP_temperature;BMP_pressure;BME280_temperature;BME280_humidity;BME280_pressure;Samples;Min_cycle;Max_cycle;Signal;HPM_P1;HPM_P2
2022/07/29 00:01:29;;;;;;;5.57;2.65;;;;;;;25.31;49.26;99707.25;5050582;28;20460;-44
2022/07/29 00:03:54;;;;;;;3.70;2.80;;;;;;;25.04;49.94;99702.56;5050220;28;20082;-44
2022/07/29 00:06:20;;;;;;;5.05;2.95;;;;;;;24.94;50.20;99692.66;5050511;28;20027;-43
2022/07/29 00:08:46;;;;;;;4.35;3.20;;;;;;;25.06;50.13;99700.34;5050295;28;20043;-43
2022/07/29 00:11:11;;;;;;;5.50;3.00;;;;;;;24.77;50.78;99696.78;5049212;28;20187;-43
2022/07/29 00:13:37;;;;;;;7.03;3.00;;;;;;;24.75;51.18;99709.06;5049739;28;20095;-44
2022/07/29 00:16:02;;;;;;;5.68;3.10;;;;;;;24.88;50.85;99713.72;5050283;28;20032;-42
2022/07/29 00:18:28;;;;;;;12.45;3.38;;;;;;;24.82;51.12;99714.13;5050436;28;20059;-42
2022/07/29 00:20:53;;;;;;;4.93;3.28;;;;;;;24.86;51.33;99704.25;5050545;28;20109;-44
2022/07/29 00:23:19;;;;;;;3.80;3.40;;;;;;;24.89;51.03;99704.47;5050080;28;20342;-43
2022/07/29 00:25:44;;;;;;;5.85;3.42;;;;;;;24.74;51.20;99689.19;5050304;28;20025;-43
2022/07/29 00:28:09;;;;;;;6.10;3.80;;;;;;;24.72;51.74;99709.66;5050434;28;20021;-43
2022/07/29 00:30:35;;;;;;;6.10;3.75;;;;;;;24.68;51.65;99703.22;5050282;28;20025;-43
2022/07/29 00:33:00;;;;;;;7.47;3.72;;;;;;;24.59;51.93;99709.31;5050186;28;20111;-43
2022/07/29 00:35:44;;;;;;;4.85;3.70;;;;;;;24.45;52.55;99702.19;5049975;28;20027;-43
2022/07/29 00:38:14;;;;;;;3.75;3.40;;;;;;;24.48;52.46;99704.31;5050174;28;20056;-44
2022/07/29 00:40:40;;;;;;;4.10;3.60;;;;;;;24.73;51.87;99701.22;5050270;28;20017;-44
2022/07/29 00:43:06;;;;;;;6.15;3.50;;;;;;;24.58;52.32;99696.84;5050385;28;20103;-44
2022/07/29 00:45:31;;;;;;;6.07;3.83;;;;;;;24.78;51.78;99698.38;5049894;28;20112;-44
2022/07/29 00:47:57;;;;;;;5.13;4.28;;;;;;;25.04;51.37;99708.03;5050336;28;20036;-43
2022/07/29 00:50:22;;;;;;;7.00;4.07;;;;;;;24.98;51.35;99701.88;5052072;28;20439;-44
2022/07/29 00:52:48;;;;;;;5.32;4.13;;;;;;;24.95;51.83;99703.25;5053626;28;20021;-45
2022/07/29 00:55:15;;;;;;;6.38;4.63;;;;;;;25.04;51.54;99705.28;5053149;28;20514;-44
2022/07/29 00:57:43;;;;;;;5.82;4.50;;;;;;;24.90;52.19;99710.69;5036598;28;20453;-43
2022/07/29 01:00:12;;;;;;;6.13;4.50;;;;;;;24.94;51.89;99707.09;5033371;28;20461;-43
2022/07/29 01:02:38;;;;;;;5.50;4.10;;;;;;;24.91;52.27;99709.59;5033518;28;20030;-45
2022/07/29 01:05:05;;;;;;;7.57;4.47;;;;;;;24.83;52.30;99702.13;5033232;28;20025;-44
2022/07/29 01:07:33;;;;;;;5.63;4.40;;;;;;;24.78;52.56;99711.97;5033250;28;20033;-43
2022/07/29 01:10:00;;;;;;;6.85;4.43;;;;;;;24.63;53.04;99706.00;5033411;28;20025;-45
2022/07/29 01:12:28;;;;;;;5.35;4.30;;;;;;;24.61;53.16;99698.13;5033011;28;20082;-43
2022/07/29 01:14:55;;;;;;;6.28;4.30;;;;;;;24.39;53.75;99701.47;5034062;28;20505;-42
2022/07/29 01:17:23;;;;;;;6.43;4.35;;;;;;;24.48;53.67;99707.03;5052725;28;20353;-44
2022/07/29 01:19:52;;;;;;;6.78;4.55;;;;;;;24.81;53.05;99713.31;5052973;28;20028;-43
2022/07/29 01:22:45;;;;;;;6.80;4.82;;;;;;;25.05;52.46;99709.63;5051655;28;20496;-44
2022/07/29 01:25:19;;;;;;;8.18;5.07;;;;;;;25.06;52.15;99712.03;5053015;28;20167;-44
2022/07/29 01:28:03;;;;;;;5.70;4.68;;;;;;;25.09;52.23;99705.19;5052501;28;20033;-43
2022/07/29 01:30:30;;;;;;;6.18;4.70;;;;;;;25.18;51.94;99711.53;5052843;28;20492;-43
2022/07/29 01:32:59;;;;;;;5.70;4.68;;;;;;;25.10;52.37;99701.38;5053223;28;20029;-42
2022/07/29 01:35:32;;;;;;;5.53;4.40;;;;;;;25.13;52.11;99711.63;5052962;28;20020;-42
2022/07/29 01:38:17;;;;;;;6.93;4.70;;;;;;;25.28;51.95;99710.56;5052854;28;20052;-43
2022/07/29 01:40:51;;;;;;;6.13;5.03;;;;;;;25.15;51.96;99706.69;5052970;28;20456;-44
2022/07/29 01:43:20;;;;;;;6.80;5.20;;;;;;;25.11;52.04;99701.06;5052788;28;20029;-43
2022/07/29 01:45:50;;;;;;;5.15;4.65;;;;;;;25.23;51.58;99703.31;5053032;28;20020;-45
2022/07/29 01:48:31;;;;;;;6.57;5.30;;;;;;;25.20;51.93;99701.16;5052765;28;20079;-44
2022/07/29 01:51:04;;;;;;;6.75;5.32;;;;;;;25.10;51.75;99699.44;5052347;28;20439;-45
2022/07/29 01:53:37;;;;;;;8.02;5.60;;;;;;;25.00;51.94;99696.09;5052233;28;20515;-44
2022/07/29 01:56:04;;;;;;;8.15;5.80;;;;;;;24.85;51.78;99695.28;5051916;28;20086;-45
2022/07/29 01:58:31;;;;;;;11.43;5.38;;;;;;;24.57;53.01;99697.91;5052297;28;20473;-47
2022/07/29 02:00:59;;;;;;;9.80;5.47;;;;;;;24.62;53.02;99698.94;5051617;28;20557;-45
2022/07/29 02:03:27;;;;;;;11.13;5.70;;;;;;;24.59;53.08;99695.72;5051962;28;20032;-46
2022/07/29 02:05:53;;;;;;;7.55;5.80;;;;;;;24.67;53.23;99691.50;5050986;28;20086;-43
2022/07/29 02:08:19;;;;;;;7.78;5.25;;;;;;;24.78;52.99;99698.38;5052326;28;20017;-46
2022/07/29 02:10:47;;;;;;;7.90;5.53;;;;;;;24.64;53.32;99694.84;5051868;28;20164;-43
2022/07/29 02:13:15;;;;;;;9.68;6.15;;;;;;;24.68;53.12;99684.16;5052183;28;20472;-43
2022/07/29 02:15:42;;;;;;;9.93;5.68;;;;;;;24.67;53.35;99691.50;5052155;28;20025;-43
2022/07/29 02:18:13;;;;;;;8.57;5.47;;;;;;;24.71;53.28;99694.44;5051997;28;20031;-43
2022/07/29 02:20:41;;;;;;;11.25;5.82;;;;;;;24.72;53.50;99698.78;5051958;28;20032;-43
2022/07/29 02:23:10;;;;;;;15.13;5.32;;;;;;;24.91;52.87;99687.84;5050743;28;20079;-44
2022/07/29 02:25:35;;;;;;;;;;;;;;;24.90;53.00;99697.09;5052480;28;20472;-37
2022/07/29 02:28:03;;;;;;;9.80;5.35;;;;;;;24.83;53.07;99680.34;5051639;28;19908;-36
2022/07/29 02:30:31;;;;;;;6.90;5.00;;;;;;;24.75;53.36;99690.84;5051403;28;20029;-37
2022/07/29 02:32:57;;;;;;;6.82;5.47;;;;;;;24.82;53.28;99681.47;5051276;28;20584;-37
2022/07/29 02:35:24;;;;;;;8.23;5.35;;;;;;;24.67;53.46;99685.25;5051331;28;20489;-38
2022/07/29 02:38:49;;;;;;;6.65;4.97;;;;;;;24.69;53.53;99683.84;5051451;28;20120;-37
2022/07/29 02:40:39;;;;;;;7.95;5.53;;;;;;;24.76;53.29;99683.47;5050696;28;20033;-36
2022/07/29 02:43:06;;;;;;;;;;;;;;;24.65;53.62;99685.56;5051751;28;20029;-36
2022/07/29 02:45:34;;;;;;;6.30;4.90;;;;;;;24.55;53.87;99688.47;5051527;28;19962;-36
2022/07/29 02:48:04;;;;;;;8.55;5.32;;;;;;;24.66;53.45;99687.19;5051818;28;20105;-36
2022/07/29 02:50:34;;;;;;;6.97;4.93;;;;;;;24.49;53.71;99681.47;5051541;28;20053;-36
2022/07/29 02:53:08;;;;;;;9.65;4.82;;;;;;;24.64;53.00;99683.16;5050964;28;20025;-37
2022/07/29 02:55:39;;;;;;;8.88;5.13;;;;;;;24.52;53.27;99689.88;5051434;28;20029;-37
2022/07/29 02:58:17;;;;;;;12.40;5.07;;;;;;;24.47;53.42;99684.47;5031368;28;20048;-37
2022/07/29 03:00:46;;;;;;;10.02;5.25;;;;;;;24.49;53.49;99689.63;5031258;28;20032;-37
2022/07/29 03:03:13;;;;;;;;;;;;;;;24.53;53.34;99683.31;5031962;28;20021;-37
2022/07/29 03:05:39;;;;;;;17.17;12.07;;;;;;;24.49;53.41;99689.63;5031320;28;20357;-36
2022/07/29 03:08:08;;;;;;;57.00;37.78;;;;;;;24.40;53.50;99681.31;5031307;28;20033;-37
2022/07/29 03:10:34;;;;;;;15.55;11.57;;;;;;;24.42;53.93;99697.34;5031152;28;20033;-37
2022/07/29 03:13:01;;;;;;;32.90;22.33;;;;;;;24.50;53.68;99688.50;5031110;28;20043;-37
2022/07/29 03:15:27;;;;;;;9.43;5.43;;;;;;;24.48;53.96;99688.78;5035944;28;20017;-37
2022/07/29 03:17:53;;;;;;;9.10;4.78;;;;;;;24.47;53.65;99689.91;5050814;28;20102;-36
2022/07/29 03:20:19;;;;;;;7.63;4.90;;;;;;;24.55;53.56;99697.41;5051398;28;20032;-35
2022/07/29 03:22:48;;;;;;;6.85;5.03;;;;;;;24.44;53.87;99692.41;5050926;28;20025;-35
2022/07/29 03:25:15;;;;;;;8.30;5.03;;;;;;;24.51;53.60;99698.28;5050732;28;20028;-37
2022/07/29 03:27:41;;;;;;;8.07;4.90;;;;;;;24.54;53.86;99703.97;5050842;28;20036;-37
2022/07/29 03:30:08;;;;;;;7.55;5.00;;;;;;;24.62;53.72;99701.66;5050795;28;20036;-37
2022/07/29 03:32:34;;;;;;;6.78;4.50;;;;;;;24.63;53.71;99717.69;5051099;28;20484;-37
2022/07/29 03:34:59;;;;;;;9.57;5.28;;;;;;;24.74;53.26;99718.34;5050659;28;20024;-36
2022/07/29 03:37:25;;;;;;;8.43;5.28;;;;;;;24.65;53.60;99703.78;5050567;28;20361;-37
2022/07/29 03:39:55;;;;;;;10.07;5.75;;;;;;;24.74;53.34;99707.44;5050692;28;20518;-37
2022/07/29 03:42:23;;;;;;;11.20;5.82;;;;;;;24.63;53.73;99712.25;5050379;28;20052;-37
2022/07/29 03:44:50;;;;;;;13.93;9.20;;;;;;;24.49;53.94;99712.19;5048827;28;20119;-37
2022/07/29 03:47:18;;;;;;;10.73;8.50;;;;;;;24.80;53.30;99713.59;5050209;28;20476;-36
2022/07/29 03:49:48;;;;;;;6.82;6.00;;;;;;;24.83;53.14;99705.66;5050631;28;20377;-35
2022/07/29 03:52:13;;;;;;;10.15;5.88;;;;;;;24.81;53.09;99718.75;5050118;28;20545;-36
2022/07/29 03:54:39;;;;;;;9.88;5.70;;;;;;;25.07;52.66;99719.09;5050241;28;20025;-36
2022/07/29 03:57:07;;;;;;;8.73;5.95;;;;;;;25.26;52.01;99715.50;5050448;28;20033;-36
2022/07/29 03:59:33;;;;;;;9.30;6.13;;;;;;;25.51;51.44;99717.75;5050832;28;20029;-36
2022/07/29 04:02:00;;;;;;;10.75;6.05;;;;;;;25.79;50.67;99719.63;5050683;28;20052;-36
2022/07/29 04:04:26;;;;;;;10.20;6.35;;;;;;;26.18;49.43;99720.97;5050130;28;20021;-36
2022/07/29 04:06:51;;;;;;;11.30;6.35;;;;;;;26.84;47.33;99724.81;5049927;28;20389;-37
2022/07/29 04:09:17;;;;;;;15.50;6.72;;;;;;;26.39;48.55;99721.28;5031229;28;20032;-36
2022/07/29 04:11:42;;;;;;;15.00;6.90;;;;;;;26.40;48.94;99723.69;5030678;28;20057;-36
2022/07/29 04:14:08;;;;;;;8.38;6.22;;;;;;;26.41;48.73;99716.34;5030596;28;20021;-37
2022/07/29 04:16:33;;;;;;;13.27;8.63;;;;;;;26.63;48.25;99732.72;5030407;28;20526;-36
2022/07/29 04:18:59;;;;;;;10.27;6.97;;;;;;;27.03;46.81;99724.59;5030180;28;20132;-37
2022/07/29 04:21:24;;;;;;;10.75;7.45;;;;;;;27.33;46.36;99730.38;5030652;28;20025;-46
2022/07/29 04:23:50;;;;;;;7.43;6.15;;;;;;;27.60;45.48;99726.59;5036932;28;20416;-44
2022/07/29 04:26:19;;;;;;;11.00;7.22;;;;;;;27.62;45.44;99729.03;5050471;28;20151;-45
2022/07/29 04:28:45;;;;;;;12.77;6.97;;;;;;;27.68;45.62;99730.47;5047302;28;20107;-41
2022/07/29 04:31:12;;;;;;;34.38;27.05;;;;;;;27.78;45.36;99715.72;5053956;28;20060;-44
2022/07/29 04:33:37;;;;;;;11.88;8.80;;;;;;;28.25;44.54;99729.59;5053802;28;20028;-43
2022/07/29 04:36:03;;;;;;;8.13;7.07;;;;;;;28.28;44.48;99729.78;5053411;28;20029;-43
2022/07/29 04:38:28;;;;;;;8.63;6.88;;;;;;;29.14;42.84;99734.66;5052863;28;20028;-43
2022/07/29 04:40:54;;;;;;;9.32;7.13;;;;;;;28.81;42.86;99732.47;5052222;28;20048;-41
2022/07/29 04:43:19;;;;;;;11.80;8.18;;;;;;;28.73;43.06;99733.28;5052230;28;20469;-43
2022/07/29 04:45:44;;;;;;;18.33;11.77;;;;;;;28.75;42.92;99736.50;5052443;28;20112;-44
2022/07/29 04:48:10;;;;;;;12.65;10.40;;;;;;;29.05;42.47;99742.88;5051864;28;20021;-41
2022/07/29 04:50:39;;;;;;;9.15;7.30;;;;;;;29.39;41.63;99754.84;5051328;28;20516;-42
2022/07/29 04:53:04;;;;;;;;;;;;;;;30.07;40.52;99748.53;5052236;28;20020;-42
2022/07/29 04:55:30;;;;;;;9.75;6.88;;;;;;;29.93;40.01;99746.84;5051564;28;19909;-42
2022/07/29 04:57:55;;;;;;;10.77;5.82;;;;;;;29.53;40.50;99755.44;5052014;28;20036;-42
2022/07/29 05:00:20;;;;;;;12.55;5.78;;;;;;;29.48;39.93;99750.16;5052091;28;20087;-43
2022/07/29 05:02:46;;;;;;;7.00;5.20;;;;;;;29.95;38.89;99743.75;5052480;28;20443;-44
2022/07/29 05:05:11;;;;;;;6.13;4.43;;;;;;;30.00;38.98;99746.31;5052938;28;20464;-47
2022/07/29 05:07:37;;;;;;;5.90;4.60;;;;;;;30.43;38.12;99749.91;5053560;28;20025;-46
2022/07/29 05:10:03;;;;;;;5.82;4.80;;;;;;;30.96;36.91;99762.78;5052836;28;20060;-42
2022/07/29 05:12:29;;;;;;;9.32;4.70;;;;;;;30.49;37.72;99748.53;5052661;28;20057;-44
2022/07/29 05:14:54;;;;;;;6.25;4.57;;;;;;;30.41;37.51;99750.22;5051409;28;20210;-43
2022/07/29 05:17:20;;;;;;;7.22;4.80;;;;;;;30.46;37.43;99757.44;5032578;28;20413;-45
2022/07/29 05:19:46;;;;;;;7.50;4.57;;;;;;;30.55;37.34;99760.91;5032951;28;20033;-45
2022/07/29 05:22:11;;;;;;;8.40;4.93;;;;;;;31.04;37.12;99760.28;5032389;28;20406;-43
2022/07/29 05:24:37;;;;;;;7.70;5.07;;;;;;;31.36;36.35;99761.34;5032292;28;20125;-46
2022/07/29 05:27:02;;;;;;;10.13;5.03;;;;;;;31.09;37.08;99762.78;5032650;28;20033;-43
2022/07/29 05:29:28;;;;;;;6.53;4.82;;;;;;;30.87;37.36;99758.50;5032533;28;20509;-44
2022/07/29 05:31:53;;;;;;;7.93;4.85;;;;;;;31.10;37.46;99767.16;5032597;28;20522;-45
2022/07/29 05:34:19;;;;;;;8.90;5.45;;;;;;;31.44;36.62;99762.38;5032044;28;20040;-44
2022/07/29 05:36:45;;;;;;;7.93;5.50;;;;;;;31.93;35.63;99765.94;5031437;28;20175;-45
2022/07/29 05:39:12;;;;;;;13.52;5.38;;;;;;;31.68;36.39;99756.91;5032555;28;20044;-44
2022/07/29 05:41:38;;;;;;;15.82;5.53;;;;;;;31.54;36.08;99762.75;5032387;28;20106;-43
2022/07/29 05:44:03;;;;;;;7.72;4.82;;;;;;;31.66;36.33;99767.47;5031988;28;20493;-42
2022/07/29 05:46:29;;;;;;;9.02;4.80;;;;;;;31.84;35.26;99768.00;5032220;28;20075;-43
2022/07/29 05:48:54;;;;;;;10.68;4.65;;;;;;;32.28;34.79;99770.91;5031761;28;20116;-43
2022/07/29 05:51:20;;;;;;;10.48;4.07;;;;;;;32.41;34.37;99774.44;5031973;28;20022;-44
2022/07/29 05:53:45;;;;;;;7.82;4.80;;;;;;;32.35;34.24;99773.09;5031932;28;20017;-42
2022/07/29 05:56:10;;;;;;;6.57;4.70;;;;;;;32.68;33.72;99781.09;5031789;28;20334;-45
2022/07/29 05:58:36;;;;;;;6.47;4.80;;;;;;;32.47;34.69;99786.78;5030796;28;20123;-42
2022/07/29 06:01:02;;;;;;;8.43;4.68;;;;;;;32.75;34.48;99783.28;5032050;28;20065;-42
2022/07/29 06:03:27;;;;;;;8.80;5.07;;;;;;;33.79;32.74;99787.88;5031788;28;20063;-43
2022/07/29 06:05:53;;;;;;;7.63;5.55;;;;;;;33.42;32.82;99777.94;5031417;28;20033;-46
2022/07/29 06:08:19;;;;;;;6.18;5.05;;;;;;;33.16;33.84;99777.66;5031863;28;20025;-43
2022/07/29 06:10:45;;;;;;;8.30;4.93;;;;;;;33.35;32.89;99774.97;5031769;28;20128;-44
2022/07/29 06:13:11;;;;;;;9.85;5.20;;;;;;;34.28;31.82;99788.19;5031254;28;20512;-45
2022/07/29 06:15:37;;;;;;;8.75;5.22;;;;;;;33.87;32.59;99782.16;5031342;28;20029;-45
2022/07/29 06:18:03;;;;;;;6.72;5.22;;;;;;;33.61;32.88;99784.69;5031479;28;20041;-43
2022/07/29 06:20:30;;;;;;;8.82;5.20;;;;;;;33.47;33.11;99777.66;5031808;28;20029;-42
2022/07/29 06:22:56;;;;;;;9.95;5.18;;;;;;;33.57;33.02;99778.28;5031076;28;20426;-43
2022/07/29 06:25:21;;;;;;;8.18;5.32;;;;;;;34.59;31.55;99783.69;5031062;28;20052;-46
2022/07/29 06:27:47;;;;;;;7.30;5.25;;;;;;;34.36;32.14;99780.06;5030757;28;20471;-43
2022/07/29 06:30:12;;;;;;;8.48;5.47;;;;;;;34.32;31.71;99787.47;5031174;28;20025;-47
2022/07/29 06:32:38;;;;;;;7.43;5.47;;;;;;;34.46;32.01;99785.00;5029870;28;20473;-45
2022/07/29 06:35:04;;;;;;;8.70;5.30;;;;;;;34.07;31.78;99782.19;5031329;28;20021;-44
2022/07/29 06:37:29;;;;;;;8.40;5.05;;;;;;;35.26;30.24;99777.03;5031137;28;20029;-46
2022/07/29 06:42:43;;;;;;;8.18;5.20;;;;;;;34.60;31.38;99777.00;5031149;28;20036;-47
2022/07/29 06:45:09;;;;;;;7.97;5.43;;;;;;;34.34;31.44;99774.09;5030676;28;20021;-44
2022/07/29 06:47:34;;;;;;;6.10;5.15;;;;;;;34.62;31.52;99777.44;5030292;28;20063;-46
2022/07/29 06:50:00;;;;;;;8.52;5.60;;;;;;;35.19;30.16;99774.97;5029426;28;20482;-43
2022/07/29 06:52:25;;;;;;;7.35;5.20;;;;;;;34.76;30.79;99767.84;5030712;28;20079;-44
2022/07/29 06:54:51;;;;;;;8.40;5.10;;;;;;;34.65;31.07;99778.66;5030893;28;20018;-45
2022/07/29 06:57:16;;;;;;;5.75;4.82;;;;;;;34.40;31.48;99775.41;5030667;28;20120;-44
2022/07/29 06:59:42;;;;;;;6.82;5.00;;;;;;;35.17;29.99;99759.88;5030374;28;20120;-43
2022/07/29 07:02:07;;;;;;;5.90;5.13;;;;;;;34.45;30.98;99773.16;5030919;28;20062;-44
2022/07/29 07:04:33;;;;;;;7.13;5.50;;;;;;;34.47;31.40;99767.28;5030186;28;20033;-43
2022/07/29 07:06:59;;;;;;;8.93;5.80;;;;;;;34.25;31.47;99766.03;5030844;28;20456;-45
2022/07/29 07:09:25;;;;;;;6.85;5.53;;;;;;;34.08;31.78;99764.44;5030372;28;20072;-46
2022/07/29 07:11:50;;;;;;;8.68;5.32;;;;;;;34.07;31.21;99768.38;5030479;28;20061;-45
2022/07/29 07:14:16;;;;;;;9.57;5.05;;;;;;;35.01;30.34;99755.28;5031313;28;20017;-46
2022/07/29 07:16:41;;;;;;;8.13;5.30;;;;;;;35.02;30.46;99765.16;5030684;28;20028;-43
2022/07/29 07:19:07;;;;;;;9.82;5.43;;;;;;;34.30;31.08;99762.19;5030189;28;20350;-43
2022/07/29 07:21:33;;;;;;;8.25;5.00;;;;;;;34.11;31.06;99766.50;5030317;28;20067;-46
2022/07/29 07:23:59;;;;;;;6.50;4.72;;;;;;;34.85;30.52;99757.34;5030502;28;20025;-43
2022/07/29 07:26:25;;;;;;;8.38;5.20;;;;;;;36.06;28.56;99757.69;5030277;28;20481;-43
2022/07/29 07:28:51;;;;;;;5.32;4.65;;;;;;;35.45;29.08;99745.72;5030528;28;20029;-43
2022/07/29 07:31:17;;;;;;;6.20;4.90;;;;;;;35.57;29.80;99762.13;5030035;28;20029;-43
2022/07/29 07:33:42;;;;;;;5.68;4.72;;;;;;;35.85;29.13;99765.72;5030244;28;20389;-43
2022/07/29 07:36:08;;;;;;;8.45;5.05;;;;;;;36.04;29.09;99757.25;5030759;28;20108;-43
2022/07/29 07:38:34;;;;;;;7.70;4.82;;;;;;;35.66;29.01;99763.81;5030460;28;20041;-44
2022/07/29 07:41:00;;;;;;;7.70;4.57;;;;;;;36.10;28.01;99755.78;5029525;28;20413;-44
2022/07/29 07:43:25;;;;;;;7.15;5.40;;;;;;;35.08;29.52;99762.88;5030286;28;20036;-43
2022/07/29 07:45:51;;;;;;;7.25;4.70;;;;;;;34.94;29.74;99763.44;5029607;28;20033;-44
2022/07/29 07:48:16;;;;;;;8.75;4.40;;;;;;;34.50;30.19;99752.75;5029921;28;20033;-46
2022/07/29 07:50:43;;;;;;;5.13;4.18;;;;;;;35.29;28.35;99748.66;5030026;28;20119;-45
2022/07/29 07:53:08;;;;;;;7.22;4.30;;;;;;;36.35;27.27;99744.25;5029726;28;20105;-44
2022/07/29 07:55:40;;;;;;;5.00;3.50;;;;;;;35.71;26.57;99746.94;5029865;28;20104;-45
2022/07/29 07:58:05;;;;;;;7.85;4.38;;;;;;;35.51;26.71;99752.56;5030056;28;20039;-43
2022/07/29 08:00:32;;;;;;;6.63;3.80;;;;;;;35.17;28.20;99744.13;5032354;28;20025;-45
2022/07/29 08:02:57;;;;;;;5.07;3.60;;;;;;;35.00;28.38;99744.59;5033618;28;20028;-43
2022/07/29 08:05:22;;;;;;;4.30;3.38;;;;;;;35.48;26.33;99742.22;5033887;28;20022;-44
2022/07/29 08:07:48;;;;;;;3.72;3.33;;;;;;;35.34;26.72;99742.81;5033918;28;20088;-46
2022/07/29 08:13:11;;;;;;;5.00;3.47;;;;;;;35.06;27.23;99740.34;5033918;28;20055;-44
2022/07/29 08:15:39;;;;;;;5.32;3.60;;;;;;;34.71;27.26;99749.63;5033982;28;20424;-45
2022/07/29 08:18:04;;;;;;;4.85;3.55;;;;;;;34.94;26.45;99734.97;5033934;28;20040;-43
2022/07/29 08:20:31;;;;;;;4.45;3.10;;;;;;;34.84;25.28;99744.69;5033662;28;20021;-44
2022/07/29 08:22:57;;;;;;;6.03;3.47;;;;;;;34.63;25.96;99743.13;5033487;28;20021;-44
2022/07/29 08:25:22;;;;;;;5.53;3.53;;;;;;;34.39;27.06;99743.44;5033271;28;20029;-43
2022/07/29 08:27:48;;;;;;;7.75;3.85;;;;;;;34.79;26.76;99740.28;5033633;28;20408;-44
2022/07/29 08:30:13;;;;;;;6.28;4.68;;;;;;;35.28;25.92;99737.94;5033833;28;20373;-43
2022/07/29 08:32:39;;;;;;;5.45;2.92;;;;;;;35.00;26.33;99739.84;5034041;28;20032;-44
2022/07/29 08:35:05;;;;;;;6.40;3.35;;;;;;;34.75;26.68;99744.13;5033500;28;20026;-45
2022/07/29 08:37:30;;;;;;;4.90;3.30;;;;;;;34.35;27.07;99732.31;5033700;28;20405;-44
2022/07/29 08:39:56;;;;;;;4.53;3.47;;;;;;;34.07;27.62;99719.50;5033377;28;20032;-44
2022/07/29 08:42:21;;;;;;;5.40;3.33;;;;;;;34.68;27.17;99730.19;5033269;28;20033;-44
2022/07/29 08:44:48;;;;;;;7.00;3.40;;;;;;;35.40;26.29;99718.41;5032896;28;20048;-44
2022/07/29 08:47:14;;;;;;;5.53;3.22;;;;;;;35.86;25.52;99720.25;5033228;28;20058;-42
2022/07/29 08:49:40;;;;;;;4.75;3.20;;;;;;;35.19;25.61;99721.63;5033310;28;20021;-43
2022/07/29 08:52:06;;;;;;;6.20;3.63;;;;;;;35.26;24.79;99724.50;5032206;28;20453;-44
2022/07/29 08:54:32;;;;;;;5.50;3.20;;;;;;;34.73;24.54;99703.06;5033548;28;20025;-45
2022/07/29 08:56:58;;;;;;;4.90;3.10;;;;;;;34.99;24.70;99712.56;5032880;28;20017;-47
2022/07/29 08:59:26;;;;;;;3.65;3.00;;;;;;;35.32;24.95;99700.91;5033583;28;20028;-47
2022/07/29 09:01:53;;;;;;;6.13;3.28;;;;;;;35.69;24.75;99705.00;5033279;28;20538;-45
2022/07/29 09:04:19;;;;;;;5.20;3.90;;;;;;;35.72;24.46;99702.28;5032806;28;20032;-45
2022/07/29 09:06:48;;;;;;;4.53;3.40;;;;;;;35.73;23.75;99698.34;5032658;28;20413;-44
2022/07/29 09:09:14;;;;;;;4.85;2.95;;;;;;;35.91;23.92;99698.59;5033038;28;20453;-44
2022/07/29 09:11:40;;;;;;;5.25;3.42;;;;;;;36.32;24.30;99693.16;5032408;28;20056;-43
2022/07/29 09:14:06;;;;;;;4.15;3.03;;;;;;;36.35;22.65;99697.16;5032378;28;20404;-48
2022/07/29 09:16:54;;;;;;;5.78;3.83;;;;;;;35.70;24.68;99704.63;5032505;28;20143;-45
2022/07/29 09:19:28;;;;;;;4.68;3.40;;;;;;;35.94;24.84;99697.03;5032934;28;20021;-46
2022/07/29 09:21:57;;;;;;;5.05;3.40;;;;;;;36.15;23.73;99691.75;5033043;28;20055;-43
2022/07/29 09:24:40;;;;;;;3.70;3.00;;;;;;;35.53;23.68;99686.59;5032759;28;20044;-43
2022/07/29 09:27:11;;;;;;;4.90;2.70;;;;;;;36.08;22.48;99680.59;5032701;28;20025;-44
2022/07/29 09:29:37;;;;;;;3.63;2.85;;;;;;;35.73;23.24;99687.28;5032963;28;20033;-43
2022/07/29 09:32:08;;;;;;;3.80;2.80;;;;;;;35.37;23.52;99685.94;5033184;28;20030;-45
2022/07/29 09:34:33;;;;;;;5.80;3.28;;;;;;;34.93;23.54;99678.13;5032872;28;20453;-42
2022/07/29 09:36:59;;;;;;;3.60;2.90;;;;;;;35.01;23.77;99677.06;5032587;28;20180;-44
2022/07/29 09:39:34;;;;;;;3.30;3.00;;;;;;;34.75;24.54;99672.28;5032412;28;20033;-44
2022/07/29 09:42:05;;;;;;;4.72;3.35;;;;;;;35.23;24.46;99669.94;5032514;28;20381;-43
2022/07/29 09:44:49;;;;;;;5.22;3.05;;;;;;;35.65;23.77;99673.69;5032409;28;20477;-43
2022/07/29 09:47:16;;;;;;;3.50;3.20;;;;;;;35.75;24.31;99673.84;5032468;28;20066;-42
2022/07/29 09:49:59;;;;;;;3.95;2.70;;;;;;;35.65;23.79;99670.94;5032012;28;20470;-43
2022/07/29 09:52:29;;;;;;;3.75;2.70;;;;;;;35.05;23.57;99666.84;5032322;28;20181;-45
2022/07/29 09:55:09;;;;;;;6.10;2.75;;;;;;;34.56;23.24;99668.41;5032284;28;20022;-44
2022/07/29 09:57:35;;;;;;;4.78;2.50;;;;;;;34.56;23.33;99664.84;5032200;28;20112;-47
2022/07/29 10:00:06;;;;;;;3.65;2.60;;;;;;;34.78;23.39;99654.97;5031840;28;20105;-44
2022/07/29 10:02:34;;;;;;;2.90;2.60;;;;;;;34.35;23.12;99666.06;5031738;28;20021;-43
2022/07/29 10:05:02;;;;;;;3.20;2.90;;;;;;;34.75;23.17;99661.22;5031733;28;20037;-44
2022/07/29 10:07:45;;;;;;;4.60;2.60;;;;;;;34.96;23.11;99649.75;5032049;28;20068;-46
2022/07/29 10:10:10;;;;;;;3.65;2.42;;;;;;;34.77;23.46;99653.41;5031758;28;20037;-44
2022/07/29 10:12:49;;;;;;;3.92;2.88;;;;;;;34.93;22.52;99654.03;5031202;28;20102;-43
2022/07/29 10:15:15;;;;;;;3.03;2.50;;;;;;;35.05;22.67;99656.63;5031294;28;20013;-44
2022/07/29 10:17:41;;;;;;;4.55;2.70;;;;;;;34.74;23.60;99659.66;5031589;28;20477;-44
2022/07/29 10:20:08;;;;;;;5.22;2.90;;;;;;;34.65;23.47;99646.84;5030417;28;20045;-42
2022/07/29 10:22:34;;;;;;;4.93;2.70;;;;;;;34.82;24.00;99650.31;5030836;28;20091;-45
2022/07/29 10:24:59;;;;;;;3.17;2.70;;;;;;;35.28;23.00;99650.28;5031468;28;20072;-43
2022/07/29 10:27:25;;;;;;;5.82;3.42;;;;;;;35.36;22.77;99640.91;5031327;28;20104;-43
2022/07/29 10:29:50;;;;;;;4.30;2.90;;;;;;;35.60;22.61;99642.44;5031491;28;20365;-45
2022/07/29 10:32:39;;;;;;;5.65;3.67;;;;;;;35.69;23.57;99639.38;5031253;28;20025;-44
2022/07/29 10:35:16;;;;;;;4.88;2.90;;;;;;;35.50;23.78;99656.91;5031302;28;20047;-46
2022/07/29 10:38:16;;;;;;;3.17;2.80;;;;;;;35.06;23.93;99640.81;5031170;28;20052;-44
2022/07/29 10:43:51;;;;;;;3.40;2.85;;;;;;;35.09;24.14;99620.75;5030871;28;20102;-44
2022/07/29 10:46:18;;;;;;;3.10;2.80;;;;;;;35.39;24.00;99626.31;5030931;28;20532;-43
2022/07/29 10:49:10;;;;;;;5.07;3.00;;;;;;;35.66;23.22;99620.72;5030908;28;20048;-46
2022/07/29 10:51:55;;;;;;;2.85;2.65;;;;;;;36.36;23.01;99605.34;5031125;28;20034;-46
2022/07/29 10:54:36;;;;;;;3.13;2.70;;;;;;;37.03;22.67;99605.50;5030708;28;20036;-45
2022/07/29 10:57:26;;;;;;;3.80;2.90;;;;;;;36.40;22.89;99597.88;5031093;28;20136;-46
2022/07/29 11:00:01;;;;;;;3.28;2.97;;;;;;;36.53;23.19;99600.34;5025449;28;20044;-44
2022/07/29 11:02:32;;;;;;;4.45;3.00;;;;;;;36.59;23.18;99598.81;5030722;28;20489;-47
2022/07/29 11:04:58;;;;;;;6.13;2.90;;;;;;;36.68;23.33;99604.84;5030197;28;20026;-44
2022/07/29 11:07:24;;;;;;;4.85;3.05;;;;;;;36.43;23.10;99596.31;5030471;28;20040;-43
2022/07/29 11:10:11;;;;;;;3.85;2.90;;;;;;;35.84;24.30;99589.75;5030547;28;20488;-46
2022/07/29 11:12:37;;;;;;;4.20;3.22;;;;;;;36.85;23.59;99594.31;5030539;28;20053;-44
2022/07/29 11:15:08;;;;;;;6.57;2.80;;;;;;;36.33;23.61;99585.94;5030139;28;20485;-45
2022/07/29 11:17:52;;;;;;;4.63;3.03;;;;;;;36.22;23.71;99582.28;5030458;28;20562;-45
2022/07/29 11:20:44;;;;;;;3.15;2.75;;;;;;;36.65;24.20;99580.66;5030686;28;20091;-45
2022/07/29 11:23:31;;;;;;;4.18;2.97;;;;;;;36.46;24.04;99578.94;5030460;28;20057;-47
2022/07/29 11:26:21;;;;;;;6.97;3.00;;;;;;;36.00;25.07;99582.00;5029861;28;20099;-44
2022/07/29 11:29:03;;;;;;;5.57;3.30;;;;;;;36.82;24.12;99573.69;5030171;28;20029;-47
2022/07/29 11:31:42;;;;;;;3.25;2.90;;;;;;;37.01;24.13;99574.59;5030423;28;20051;-42
2022/07/29 11:34:23;;;;;;;6.22;3.00;;;;;;;35.79;24.64;99571.50;5029530;28;20021;-44
2022/07/29 11:37:07;;;;;;;6.20;3.00;;;;;;;35.92;24.58;99566.50;5030123;28;20029;-43
2022/07/29 11:39:34;;;;;;;4.57;2.78;;;;;;;36.42;23.99;99564.22;5030058;28;20083;-46
2022/07/29 11:42:21;;;;;;;3.53;2.80;;;;;;;36.38;23.41;99546.78;5030303;28;20068;-43
2022/07/29 11:44:57;;;;;;;7.38;2.90;;;;;;;36.58;23.45;99556.47;5030138;28;20128;-45
2022/07/29 11:47:23;;;;;;;4.95;3.05;;;;;;;36.57;23.63;99549.31;5029986;28;20417;-43
2022/07/29 11:49:53;;;;;;;7.75;2.90;;;;;;;36.20;23.92;99555.75;5030080;28;20094;-44